EW4622 Capraia E Limite IT current weather conditions

sailwx.info

Wind from 089 at 12 knots gusting 17

Air temperature 7.8° C
Dewpoint 0.5° C

Last reported at 2020-Jan-20 21:01 UTC.
Time now 2020-Jan-20 21:43 UTC

Location: N 43°47' E 010°59'.
View on Google Maps.

See reports from other nearby stations

  
Tides and Currents Weather Stations Pressure Air Temp Water Temp Dewpoint Dewpoint Depression Visibility Wind Speed Wind Dir Waves Ship Positions
date/time (UTC)wind fromknots sea level pressurealtimeterstation pressurevisibilityair tempwater tempwave heightnotes
2020-Jan-20 21:01 089 12 gusting 17 7.8
2020-Jan-20 20:48 067 6 gusting 17 5.0
2020-Jan-20 20:32 062 7 gusting 19 7.8
2020-Jan-20 20:16 059 9 gusting 17 7.8
2020-Jan-20 20:02 073 7 gusting 18 7.8
2020-Jan-20 19:47 066 10 gusting 20 7.8
2020-Jan-20 19:31 051 6 gusting 14 7.8
2020-Jan-20 19:16 086 7 gusting 21 7.8
2020-Jan-20 19:02 057 8 gusting 15 7.8
2020-Jan-20 18:46 079 7 gusting 19 7.8
2020-Jan-20 18:32 057 9 gusting 19 7.8
2020-Jan-20 18:16 055 8 gusting 19 7.8
2020-Jan-20 18:01 093 8 gusting 14 7.8
2020-Jan-20 17:46 061 7 gusting 16 7.8
2020-Jan-20 17:31 055 6 gusting 16 5.0
2020-Jan-20 17:16 086 9 gusting 17 7.8
2020-Jan-20 17:01 036 6 gusting 19 5.0
2020-Jan-20 16:46 043 6 gusting 16 8.3
2020-Jan-20 16:31 045 6 gusting 19 8.3
2020-Jan-20 16:16 059 9 gusting 17 8.3
2020-Jan-20 16:00 036 6 gusting 15 5.6
2020-Jan-20 15:45 080 11 gusting 19 8.9
2020-Jan-20 15:31 071 7 gusting 16 8.9
2020-Jan-20 15:16 064 10 gusting 17 8.9
2020-Jan-20 15:00 048 8 gusting 24 9.4
2020-Jan-20 14:45 067 11 gusting 18 9.4
2020-Jan-20 14:31 086 13 gusting 20 9.4
2020-Jan-20 14:01 077 10 gusting 20 10.0
2020-Jan-20 14:00 021 8 gusting 18 6.7
2020-Jan-20 13:45 089 13 gusting 25 10.0
2020-Jan-20 13:32 057 12 gusting 23 10.0
2020-Jan-20 13:15 100 10 gusting 22 10.0
2020-Jan-20 13:00 078 11 gusting 21 10.0
2020-Jan-20 12:47 035 7 gusting 21 6.7
2020-Jan-20 12:45 049 8 gusting 21 6.7
2020-Jan-20 12:33 042 8 gusting 16 6.7
2020-Jan-20 12:15 042 12 gusting 21 10.0
2020-Jan-20 12:04 063 9 gusting 20 6.7
2020-Jan-20 11:47 057 6 gusting 15 6.7
2020-Jan-20 11:32 067 6 gusting 12 6.7
2020-Jan-20 11:15 039 13 gusting 23 10.0
2020-Jan-20 11:01 050 8 gusting 21 6.7
2020-Jan-20 10:46 070 6 gusting 17 6.7
2020-Jan-20 10:31 051 9 gusting 21 6.7
2020-Jan-20 10:30 103 12 gusting 23 9.4
2020-Jan-20 10:15 067 9 gusting 21 9.4
2020-Jan-20 10:01 340 5 gusting 19 6.7
2020-Jan-20 09:46 031 6 gusting 17 6.1
2020-Jan-20 09:31 054 4 gusting 10 6.1
2020-Jan-20 09:15 053 9 gusting 23 8.9
2020-Jan-20 09:03 048 11 gusting 19 8.9
2020-Jan-20 08:46 076 9 gusting 17 8.9
2020-Jan-20 08:33 065 10 gusting 19 8.3
2020-Jan-20 08:16 055 11 gusting 19 8.3
2020-Jan-20 08:02 091 11 gusting 20 7.8
2020-Jan-20 07:47 059 8 gusting 21 7.8
2020-Jan-20 07:32 063 10 gusting 18 7.8
2020-Jan-20 07:30 037 6 gusting 15 4.4
2020-Jan-20 07:17 093 10 gusting 17 7.8
2020-Jan-20 07:01 064 13 gusting 21 7.8
2020-Jan-20 06:46 068 10 gusting 24 7.8
2020-Jan-20 06:31 067 13 gusting 20 7.8
2020-Jan-20 06:30 053 5 gusting 17 4.4
2020-Jan-20 06:16 057 12 gusting 26 7.8
2020-Jan-20 06:01 069 6 gusting 18 5.0
2020-Jan-20 05:46 062 6 gusting 15 5.0
2020-Jan-20 05:32 026 4 gusting 13 5.0
2020-Jan-20 05:16 073 12 gusting 19 8.3
2020-Jan-20 05:03 051 5 gusting 15 5.0
2020-Jan-20 04:46 053 5 gusting 14 5.0
2020-Jan-20 04:32 079 4 gusting 14 5.0
2020-Jan-20 04:16 048 6 gusting 18 8.3
2020-Jan-20 04:03 090 5 gusting 13 5.0
2020-Jan-20 03:48 062 7 gusting 16 5.0
2020-Jan-20 03:32 065 6 gusting 20 5.0
2020-Jan-20 03:16 065 12 gusting 25 8.3
2020-Jan-20 03:02 028 9 gusting 19 5.0
2020-Jan-20 02:46 060 8 gusting 18 5.0
2020-Jan-20 02:32 037 6 gusting 19 5.0
2020-Jan-20 02:15 067 11 gusting 21 8.3
2020-Jan-20 02:01 057 5 gusting 16 5.6
2020-Jan-20 02:00 105 9 gusting 22 8.3
2020-Jan-20 01:46 012 7 gusting 15 5.6
2020-Jan-20 01:45 067 11 gusting 20 8.3
2020-Jan-20 01:33 049 4 gusting 23 5.6
2020-Jan-20 01:30 064 13 gusting 23 8.9
2020-Jan-20 01:15 094 12 gusting 22 8.9
2020-Jan-20 01:03 083 13 gusting 21 8.9
2020-Jan-20 00:47 046 13 gusting 21 8.9
2020-Jan-20 00:31 055 9 gusting 19 8.9
2020-Jan-20 00:17 082 10 gusting 19 8.9
2020-Jan-20 00:02 066 11 gusting 19 8.9
2020-Jan-20 00:00 042 5 gusting 18 5.6
2020-Jan-19 23:47 071 6 gusting 23 8.9
2020-Jan-19 23:31 070 10 gusting 24 8.9
2020-Jan-19 23:18 092 11 gusting 19 8.9
2020-Jan-19 23:01 040 9 gusting 18 8.9
2020-Jan-19 23:00 072 6 gusting 17 5.6
2020-Jan-19 22:46 038 10 gusting 21 8.9
2020-Jan-19 22:31 069 11 gusting 19 8.9
2020-Jan-19 22:30 076 6 gusting 16 5.6
2020-Jan-19 22:16 032 12 gusting 23 8.9
2020-Jan-19 22:01 042 5 gusting 14 6.1
2020-Jan-19 21:46 062 4 gusting 16 6.1
2020-Jan-19 21:32 040 6 gusting 15 6.1
2020-Jan-19 21:16 022 9 gusting 18 9.4
2020-Jan-19 21:01 032 6 gusting 17 6.1
2020-Jan-19 20:47 360 6 gusting 14 6.1
2020-Jan-19 20:32 057 8 gusting 18 6.1
2020-Jan-19 20:16 062 13 gusting 22 9.4
2020-Jan-19 20:03 020 6 gusting 17 6.1
2020-Jan-19 19:46 065 6 gusting 19 6.1
2020-Jan-19 19:33 044 7 gusting 16 6.1
2020-Jan-19 19:15 053 8 gusting 18 9.4
2020-Jan-19 19:03 030 5 gusting 14 6.1
2020-Jan-19 18:46 065 6 gusting 17 5.6
2020-Jan-19 18:32 046 6 gusting 13 5.6
2020-Jan-19 18:15 085 10 gusting 18 8.9
2020-Jan-19 18:01 024 9 gusting 19 8.9
2020-Jan-19 17:45 055 10 gusting 18 8.9
2020-Jan-19 17:31 034 6 gusting 18 5.6
2020-Jan-19 17:15 033 10 gusting 21 8.9
2020-Jan-19 17:01 054 13 gusting 21 8.9
2020-Jan-19 16:46 024 6 gusting 15 5.6
2020-Jan-19 16:31 058 8 gusting 19 8.9
2020-Jan-19 16:15 040 11 gusting 18 9.4
2020-Jan-19 16:01 068 5 gusting 13 6.1
2020-Jan-19 16:00 088 9 gusting 19 9.4
2020-Jan-19 15:46 030 5 gusting 18 6.1
2020-Jan-19 15:30 360 6 gusting 16 6.1
2020-Jan-19 15:15 021 6 gusting 17 9.4
2020-Jan-19 15:00 355 6 gusting 18 6.7
2020-Jan-19 14:46 033 6 gusting 13 6.7
2020-Jan-19 14:45 055 10 gusting 19 10.0
2020-Jan-19 14:30 059 4 gusting 22 6.7
2020-Jan-19 14:02 037 8 gusting 16 10.0
2020-Jan-19 13:47 046 6 gusting 19 10.0
2020-Jan-19 13:33 085 12 gusting 22 10.6
2020-Jan-19 13:18 040 12 gusting 20 11.1
2020-Jan-19 13:03 061 10 gusting 20 10.6
2020-Jan-19 12:46 042 6 gusting 16 7.8
2020-Jan-19 12:35 044 8 gusting 21 11.7
2020-Jan-19 12:16 059 9 gusting 19 11.7
2020-Jan-19 12:01 094 12 gusting 22 11.1
2020-Jan-19 11:46 065 10 gusting 19 11.1
2020-Jan-19 11:45 038 6 gusting 15 7.8
2020-Jan-19 11:31 072 11 gusting 16 11.1
2020-Jan-19 11:17 071 8 gusting 13 11.1
2020-Jan-19 11:01 036 8 gusting 17 11.1
2020-Jan-19 11:00 030 4 gusting 11 8.3
2020-Jan-19 10:47 034 7 gusting 16 11.1
2020-Jan-19 10:45 031 5 gusting 13 7.8
2020-Jan-19 10:32 036 9 gusting 15 10.6
2020-Jan-19 10:02 036 6 gusting 18 10.6
2020-Jan-19 09:46 038 3 gusting 13 7.2
2020-Jan-19 09:31 062 9 gusting 20 10.0
2020-Jan-19 09:17 030 6 gusting 19 6.7
2020-Jan-19 09:02 026 4 gusting 13 6.7
2020-Jan-19 08:46 028 6 gusting 13 9.4
2020-Jan-19 08:32 034 4 gusting 11 6.1
2020-Jan-19 08:16 064 6 gusting 14 6.1
2020-Jan-19 08:01 051 6 gusting 14 6.1
2020-Jan-19 07:48 055 4 gusting 13 5.6
2020-Jan-19 07:31 052 3 gusting 11 5.6
2020-Jan-19 07:17 061 2 gusting 7 8.3
2020-Jan-19 07:01 036 6 gusting 14 5.6
2020-Jan-19 06:45 045 6 gusting 15 5.6
2020-Jan-19 06:31 046 6 gusting 14 5.6
2020-Jan-19 06:15 028 4 gusting 12 5.6
2020-Jan-19 06:01 026 5 gusting 13 5.6
2020-Jan-19 05:46 005 3 gusting 12 5.0
2020-Jan-19 05:31 038 3 gusting 13 5.0
2020-Jan-19 05:16 042 3 gusting 13 5.0
2020-Jan-19 05:00 044 4 gusting 12 5.0
2020-Jan-19 04:47 048 4 gusting 13 5.0
2020-Jan-19 04:30 013 6 gusting 11 5.0
2020-Jan-19 04:16 037 5 gusting 13 5.0
2020-Jan-19 04:01 013 4 gusting 11 5.0
2020-Jan-19 04:00 307 0 gusting 6 4.4
2020-Jan-19 03:45 018 2 gusting 11 5.0
2020-Jan-19 03:30 043 4 gusting 13 5.0
2020-Jan-19 03:15 046 5 gusting 14 5.0
2020-Jan-19 03:02 130 4.4
2020-Jan-19 02:46 121 4.4
2020-Jan-19 02:45 017 4 gusting 11 5.0
2020-Jan-19 02:33 121 5.0
2020-Jan-19 02:30 037 4 gusting 12 5.0
2020-Jan-19 02:19 086 5.0
2020-Jan-19 02:15 047 2 gusting 9 5.0
2020-Jan-19 02:01 086 5.6
2020-Jan-19 02:00 043 3 gusting 9 5.0
2020-Jan-19 01:46 087 5.6
2020-Jan-19 01:32 024 3 gusting 9 5.0
2020-Jan-19 01:17 044 2 gusting 7 5.0
2020-Jan-19 01:02 044 2 gusting 9 5.0
2020-Jan-19 00:47 040 2 gusting 8 5.0
2020-Jan-19 00:31 246 1 gusting 2 6.7
2020-Jan-19 00:18 252 2 gusting 6 7.2
2020-Jan-19 00:01 040 2 gusting 7 5.0
2020-Jan-18 23:46 027 1 gusting 7 5.0
2020-Jan-18 23:31 032 2 gusting 7 5.0
2020-Jan-18 23:17 090 0 gusting 6 7.8
2020-Jan-18 23:01 040 1 gusting 7 5.0
2020-Jan-18 22:46 024 3 gusting 10 5.0
2020-Jan-18 22:31 071 2 gusting 11 7.2
2020-Jan-18 22:16 045 2 gusting 8 7.2
2020-Jan-18 22:01 066 5 gusting 9 7.2
2020-Jan-18 21:45 034 2 gusting 5 6.7
2020-Jan-18 21:31 117 6.1
2020-Jan-18 21:15 051 1 gusting 4 6.1
2020-Jan-18 21:00 030 6.1